Allentsteig, Austria

5:35 AM CEST on June 30, 2015 (GMT +0200)
Brunn an der Wilde / Waiden | | Change Station
CLOSE
Current Station
Personal Weather Station
Location: Waiden, NIEDERöSTERREICH
Elevation: 1768 ft
Nearby Weather Stations

Elev 1768 ft 48.69 °N, 15.47 °E | Updated 5 minutes ago

Clear
Clear
54.0 °F
Feels Like 54.0 °F
N
0.0
Wind Variable Wind from WSW
Gusts 0.0 mph

Today
High -- | Low -- °F
--% Chance of Precip.
Yesterday
High -- | Low -- °F
Precip. -- in
4:59 AM 9:04 PM
Waxing Gibbous, 95% visible
Pressure 30.18 in
Visibility -9999.0 miles
Clouds
Dew Point 51 °F
Humidity 90%
Rainfall in
Snow Depth Not available.
UV Not available.
Pollen Not available.
Air Quality Not available.
Flu Activity Not available.
METAR LOWL 300320Z 27003KT CAVOK 13/12 Q1022 NOSIG

More Conditions Fewer Conditions

Pressure 30.18 in
Visibility -9999.0 miles
Clouds
Dew Point 51 °F
Humidity 90%
Rainfall in
Snow Depth Not available.
UV Not available.
Pollen Not available.
Air Quality Not available.
Flu Activity Not available.
METAR LOWL 300320Z 27003KT CAVOK 13/12 Q1022 NOSIG

More Conditions Fewer Conditions

10-Day Weather Forecast

×

Almanac

Astronomy

Jun. 30, 2015 Rise Set
Actual Time
Civil Twilight
Nautical Twilight
Astronomical Twilight
Moon
Length of Visible Light
Length of Day
Tomorrow will be .
, % of the Moon is Illuminated

Today's Extremes

Country Highs Country Lows

Community

WunderPhotos

Upload Photos

1,833,955 photos uploaded!

WunderBlogs® & News

Nearby

Air Quality

  Air Quality AQ Index Pollutant
Not available.

Snow Depth

Station Depth Elevation

Earthquake Activity

City Distance Mag. Time & Date
Minimum magnitude displayed is 2.5.

Coastal Water Temperatures

Place Temperature

Stations

Nearby Weather Stations

Station Location Temp. Windchill Dew Point Humidity Wind Precip. Elev Updated Type